Pryse, Kentucky
Current Conditions -  °F | °C
As of 10:55 AM on Monday 24 Nov 2014 (Local Time) from KI39 Reporting Station
Overcast Overcast  
Wind Chill: 64°   Ceiling: 5000
Heat Index: 64°   Visibility: 10mi
Dew Point: 45°   Wind: 30mph
Humidity: 49%   Direction: 220°SW
Pressure: 29.56"   Gusts: 40mph
Location:  37.6427°N, 83.9998°W
Report Text: KI39 241555Z AUTO 22026G35KT 10SM BKN050 OVC060 18/07 A2956 RMK AO2
Loading
Personal Weather Stations






























Interactive Weather Map New forecast layout! Learn more

10-Day Weather Forecast

Advertisements
Track Severe Weather on mobile